Terminal Aerodrome Forecast
Issued by NWS

Home | Current Version | Previous Version | Text Only | Print | Product List | Glossary On
Versions: 1 2 3 4 5 6 7 8 9 10 11 12 13 14 15 16 17 18 19 20 21 22 23 24 25 26 27 28 29
000
FTUS46 KEKA 200600 CCA
TAFCEC
TAF COR
KCEC 200601Z 2006/2106 15007KT 3SM BR BKN003
     FM200700 15006KT 3/4SM BR BKN002
      TEMPO 2007/2009 1/2SM FG OVC002
     FM200900 VRB04KT 1/2SM FG OVC002
     FM201800 30008KT P6SM BKN004
     FM202300 30012KT P6SM SCT004=

USA.gov is the U.S. government's official web portal to all federal, state and local government web resources and services.